Terminal Aerodrome Forecast
Issued by NWS

Home | Current Version | Previous Version | Graphics & Text | Print | Product List | Glossary On
Versions: 1 2 3 4 5 6 7 8 9 10 11 12 13 14 15 16 17 18 19 20 21 22
000
FTUS42 KMHX 312337
TAFOAJ
TAF
KOAJ 312337Z 0100/0124 VRB05KT P6SM VCSH SCT050
      TEMPO 0100/0102 BKN040
     FM010300 VRB02KT P6SM FEW010 SCT050
     FM010800 00000KT 3SM BR SCT008
     FM011200 18006KT P6SM SCT050
      AMD LTD TO CLD VIS AND WIND=

USA.gov is the U.S. government's official web portal to all federal, state and local government web resources and services.